sensor_id;sensor_type;location;lat;lon;timestamp;P1;durP1;ratioP1;P2;durP2;ratioP2
16832;SDS011;8533;48.426;10.868;2024-01-11T00:01:11;48.80;;;18.07;;
16832;SDS011;8533;48.426;10.868;2024-01-11T00:03:36;57.63;;;19.70;;
16832;SDS011;8533;48.426;10.868;2024-01-11T00:06:02;59.87;;;19.43;;
16832;SDS011;8533;48.426;10.868;2024-01-11T00:08:29;49.47;;;20.47;;
16832;SDS011;8533;48.426;10.868;2024-01-11T00:10:54;41.17;;;16.73;;
16832;SDS011;8533;48.426;10.868;2024-01-11T00:13:19;47.27;;;18.17;;
16832;SDS011;8533;48.426;10.868;2024-01-11T00:15:44;50.10;;;16.77;;
16832;SDS011;8533;48.426;10.868;2024-01-11T00:18:10;50.63;;;18.87;;
16832;SDS011;8533;48.426;10.868;2024-01-11T00:20:35;59.63;;;18.80;;
16832;SDS011;8533;48.426;10.868;2024-01-11T00:23:01;58.17;;;18.07;;
16832;SDS011;8533;48.426;10.868;2024-01-11T00:25:26;50.27;;;16.63;;
16832;SDS011;8533;48.426;10.868;2024-01-11T00:27:51;48.90;;;16.83;;
16832;SDS011;8533;48.426;10.868;2024-01-11T00:30:16;50.00;;;17.43;;
16832;SDS011;8533;48.426;10.868;2024-01-11T00:32:42;60.07;;;19.70;;
16832;SDS011;8533;48.426;10.868;2024-01-11T00:35:07;57.83;;;19.03;;
16832;SDS011;8533;48.426;10.868;2024-01-11T00:37:33;55.07;;;18.97;;
16832;SDS011;8533;48.426;10.868;2024-01-11T00:39:58;48.23;;;18.43;;
16832;SDS011;8533;48.426;10.868;2024-01-11T00:42:23;60.20;;;19.63;;
16832;SDS011;8533;48.426;10.868;2024-01-11T00:44:48;63.50;;;20.03;;
16832;SDS011;8533;48.426;10.868;2024-01-11T00:47:14;55.23;;;19.30;;
16832;SDS011;8533;48.426;10.868;2024-01-11T00:49:40;59.20;;;18.47;;
16832;SDS011;8533;48.426;10.868;2024-01-11T00:52:05;56.03;;;19.87;;
16832;SDS011;8533;48.426;10.868;2024-01-11T00:54:30;56.23;;;20.33;;
16832;SDS011;8533;48.426;10.868;2024-01-11T00:56:55;54.77;;;19.10;;
16832;SDS011;8533;48.426;10.868;2024-01-11T00:59:21;61.70;;;20.10;;
16832;SDS011;8533;48.426;10.868;2024-01-11T01:01:47;56.23;;;20.83;;
16832;SDS011;8533;48.426;10.868;2024-01-11T01:04:13;48.93;;;19.80;;
16832;SDS011;8533;48.426;10.868;2024-01-11T01:06:39;55.47;;;18.03;;
16832;SDS011;8533;48.426;10.868;2024-01-11T01:09:04;51.13;;;18.87;;
16832;SDS011;8533;48.426;10.868;2024-01-11T01:11:29;56.07;;;19.27;;
16832;SDS011;8533;48.426;10.868;2024-01-11T01:13:54;50.13;;;17.50;;
16832;SDS011;8533;48.426;10.868;2024-01-11T01:16:20;55.13;;;18.10;;
16832;SDS011;8533;48.426;10.868;2024-01-11T01:18:45;62.83;;;20.47;;
16832;SDS011;8533;48.426;10.868;2024-01-11T01:21:10;57.73;;;20.37;;
16832;SDS011;8533;48.426;10.868;2024-01-11T01:23:36;49.17;;;17.30;;
16832;SDS011;8533;48.426;10.868;2024-01-11T01:26:01;49.97;;;18.50;;
16832;SDS011;8533;48.426;10.868;2024-01-11T01:28:26;51.90;;;19.40;;
16832;SDS011;8533;48.426;10.868;2024-01-11T01:30:51;55.33;;;20.03;;
16832;SDS011;8533;48.426;10.868;2024-01-11T01:33:17;48.10;;;18.67;;
16832;SDS011;8533;48.426;10.868;2024-01-11T01:35:42;53.40;;;19.60;;
16832;SDS011;8533;48.426;10.868;2024-01-11T01:38:08;57.33;;;20.17;;
16832;SDS011;8533;48.426;10.868;2024-01-11T01:40:33;54.33;;;20.50;;
16832;SDS011;8533;48.426;10.868;2024-01-11T01:42:58;53.57;;;20.33;;
16832;SDS011;8533;48.426;10.868;2024-01-11T01:45:25;52.20;;;21.10;;
16832;SDS011;8533;48.426;10.868;2024-01-11T01:47:50;52.73;;;18.83;;
16832;SDS011;8533;48.426;10.868;2024-01-11T01:50:15;52.53;;;19.37;;
16832;SDS011;8533;48.426;10.868;2024-01-11T01:52:43;70.50;;;21.80;;
16832;SDS011;8533;48.426;10.868;2024-01-11T01:55:09;52.67;;;19.03;;
16832;SDS011;8533;48.426;10.868;2024-01-11T01:57:35;58.93;;;20.00;;
16832;SDS011;8533;48.426;10.868;2024-01-11T02:00:02;48.73;;;18.83;;
16832;SDS011;8533;48.426;10.868;2024-01-11T02:02:28;54.43;;;19.57;;
16832;SDS011;8533;48.426;10.868;2024-01-11T02:04:55;48.13;;;19.13;;
16832;SDS011;8533;48.426;10.868;2024-01-11T02:07:20;46.70;;;18.07;;
16832;SDS011;8533;48.426;10.868;2024-01-11T02:09:46;53.80;;;21.53;;
16832;SDS011;8533;48.426;10.868;2024-01-11T02:12:12;47.80;;;19.97;;
16832;SDS011;8533;48.426;10.868;2024-01-11T02:14:37;54.87;;;21.03;;
16832;SDS011;8533;48.426;10.868;2024-01-11T02:17:03;57.27;;;21.33;;
16832;SDS011;8533;48.426;10.868;2024-01-11T02:19:28;54.47;;;20.73;;
16832;SDS011;8533;48.426;10.868;2024-01-11T02:21:54;47.93;;;17.93;;
16832;SDS011;8533;48.426;10.868;2024-01-11T02:24:20;46.40;;;19.00;;
16832;SDS011;8533;48.426;10.868;2024-01-11T02:27:02;52.40;;;21.10;;
16832;SDS011;8533;48.426;10.868;2024-01-11T02:29:28;55.33;;;21.13;;
16832;SDS011;8533;48.426;10.868;2024-01-11T02:31:55;49.23;;;18.17;;
16832;SDS011;8533;48.426;10.868;2024-01-11T02:34:21;50.83;;;21.27;;
16832;SDS011;8533;48.426;10.868;2024-01-11T02:36:47;49.03;;;19.63;;
16832;SDS011;8533;48.426;10.868;2024-01-11T02:39:13;54.07;;;19.47;;
16832;SDS011;8533;48.426;10.868;2024-01-11T02:41:41;52.73;;;19.20;;
16832;SDS011;8533;48.426;10.868;2024-01-11T02:44:08;56.53;;;19.97;;
16832;SDS011;8533;48.426;10.868;2024-01-11T02:46:33;62.97;;;20.20;;
16832;SDS011;8533;48.426;10.868;2024-01-11T02:48:58;47.17;;;18.80;;
16832;SDS011;8533;48.426;10.868;2024-01-11T02:51:24;47.00;;;19.00;;
16832;SDS011;8533;48.426;10.868;2024-01-11T02:53:49;46.57;;;18.43;;
16832;SDS011;8533;48.426;10.868;2024-01-11T02:56:14;56.60;;;20.40;;
16832;SDS011;8533;48.426;10.868;2024-01-11T02:58:39;48.57;;;19.00;;
16832;SDS011;8533;48.426;10.868;2024-01-11T03:01:05;59.83;;;20.47;;
16832;SDS011;8533;48.426;10.868;2024-01-11T03:03:30;51.83;;;19.67;;
16832;SDS011;8533;48.426;10.868;2024-01-11T03:05:56;50.40;;;18.33;;
16832;SDS011;8533;48.426;10.868;2024-01-11T03:08:21;49.07;;;19.03;;
16832;SDS011;8533;48.426;10.868;2024-01-11T03:10:47;53.03;;;20.33;;
16832;SDS011;8533;48.426;10.868;2024-01-11T03:13:12;54.83;;;17.77;;
16832;SDS011;8533;48.426;10.868;2024-01-11T03:15:37;50.33;;;19.97;;
16832;SDS011;8533;48.426;10.868;2024-01-11T03:18:03;48.93;;;19.73;;
16832;SDS011;8533;48.426;10.868;2024-01-11T03:20:28;60.57;;;20.97;;
16832;SDS011;8533;48.426;10.868;2024-01-11T03:22:54;50.50;;;19.17;;
16832;SDS011;8533;48.426;10.868;2024-01-11T03:25:19;55.57;;;17.97;;
16832;SDS011;8533;48.426;10.868;2024-01-11T03:27:45;50.70;;;19.37;;
16832;SDS011;8533;48.426;10.868;2024-01-11T03:30:11;49.70;;;19.27;;
16832;SDS011;8533;48.426;10.868;2024-01-11T03:32:36;48.77;;;20.00;;
16832;SDS011;8533;48.426;10.868;2024-01-11T03:35:03;50.50;;;19.33;;
16832;SDS011;8533;48.426;10.868;2024-01-11T03:37:30;52.80;;;19.40;;
16832;SDS011;8533;48.426;10.868;2024-01-11T03:39:56;47.03;;;19.27;;
16832;SDS011;8533;48.426;10.868;2024-01-11T03:42:21;51.07;;;19.23;;
16832;SDS011;8533;48.426;10.868;2024-01-11T03:44:46;59.27;;;19.60;;
16832;SDS011;8533;48.426;10.868;2024-01-11T03:47:11;60.33;;;20.07;;
16832;SDS011;8533;48.426;10.868;2024-01-11T03:49:37;46.83;;;17.13;;
16832;SDS011;8533;48.426;10.868;2024-01-11T03:52:02;49.23;;;18.13;;
16832;SDS011;8533;48.426;10.868;2024-01-11T03:54:27;46.33;;;18.07;;
16832;SDS011;8533;48.426;10.868;2024-01-11T03:56:53;48.63;;;19.47;;
16832;SDS011;8533;48.426;10.868;2024-01-11T03:59:18;50.47;;;20.43;;
16832;SDS011;8533;48.426;10.868;2024-01-11T04:01:43;52.67;;;20.27;;
16832;SDS011;8533;48.426;10.868;2024-01-11T04:04:09;56.67;;;18.40;;
16832;SDS011;8533;48.426;10.868;2024-01-11T04:06:35;59.53;;;19.83;;
16832;SDS011;8533;48.426;10.868;2024-01-11T04:09:00;50.30;;;18.93;;
16832;SDS011;8533;48.426;10.868;2024-01-11T04:11:28;53.27;;;19.40;;
16832;SDS011;8533;48.426;10.868;2024-01-11T04:13:54;51.27;;;19.90;;
16832;SDS011;8533;48.426;10.868;2024-01-11T04:16:19;57.27;;;19.27;;
16832;SDS011;8533;48.426;10.868;2024-01-11T04:18:45;52.07;;;19.03;;
16832;SDS011;8533;48.426;10.868;2024-01-11T04:24:05;56.03;;;20.23;;
16832;SDS011;8533;48.426;10.868;2024-01-11T04:26:31;51.77;;;18.60;;
16832;SDS011;8533;48.426;10.868;2024-01-11T04:28:57;52.77;;;20.37;;
16832;SDS011;8533;48.426;10.868;2024-01-11T04:31:24;62.03;;;21.27;;
16832;SDS011;8533;48.426;10.868;2024-01-11T04:33:50;56.97;;;20.10;;
16832;SDS011;8533;48.426;10.868;2024-01-11T04:36:15;52.33;;;20.57;;
16832;SDS011;8533;48.426;10.868;2024-01-11T04:38:41;44.20;;;19.07;;
16832;SDS011;8533;48.426;10.868;2024-01-11T04:41:12;62.30;;;21.97;;
16832;SDS011;8533;48.426;10.868;2024-01-11T04:43:42;56.37;;;21.47;;
16832;SDS011;8533;48.426;10.868;2024-01-11T04:48:44;54.47;;;20.07;;
16832;SDS011;8533;48.426;10.868;2024-01-11T04:51:11;60.60;;;22.33;;
16832;SDS011;8533;48.426;10.868;2024-01-11T04:53:38;58.60;;;19.83;;
16832;SDS011;8533;48.426;10.868;2024-01-11T04:56:07;60.53;;;21.23;;
16832;SDS011;8533;48.426;10.868;2024-01-11T04:58:34;60.93;;;22.47;;
16832;SDS011;8533;48.426;10.868;2024-01-11T05:01:04;67.37;;;21.83;;
16832;SDS011;8533;48.426;10.868;2024-01-11T05:03:30;57.97;;;22.47;;
16832;SDS011;8533;48.426;10.868;2024-01-11T05:05:56;59.10;;;19.77;;
16832;SDS011;8533;48.426;10.868;2024-01-11T05:08:22;59.90;;;20.13;;
16832;SDS011;8533;48.426;10.868;2024-01-11T05:10:48;63.77;;;23.13;;
16832;SDS011;8533;48.426;10.868;2024-01-11T05:13:14;65.87;;;22.23;;
16832;SDS011;8533;48.426;10.868;2024-01-11T05:15:39;49.47;;;20.30;;
16832;SDS011;8533;48.426;10.868;2024-01-11T05:18:04;56.80;;;19.50;;
16832;SDS011;8533;48.426;10.868;2024-01-11T05:20:30;59.83;;;19.23;;
16832;SDS011;8533;48.426;10.868;2024-01-11T05:22:55;56.77;;;21.53;;
16832;SDS011;8533;48.426;10.868;2024-01-11T05:25:21;67.90;;;19.70;;
16832;SDS011;8533;48.426;10.868;2024-01-11T05:27:46;55.37;;;20.93;;
16832;SDS011;8533;48.426;10.868;2024-01-11T05:30:11;61.23;;;22.03;;
16832;SDS011;8533;48.426;10.868;2024-01-11T05:32:37;56.60;;;20.50;;
16832;SDS011;8533;48.426;10.868;2024-01-11T05:35:02;51.60;;;20.80;;
16832;SDS011;8533;48.426;10.868;2024-01-11T05:37:28;62.03;;;22.33;;
16832;SDS011;8533;48.426;10.868;2024-01-11T05:39:53;52.67;;;19.73;;
16832;SDS011;8533;48.426;10.868;2024-01-11T05:42:19;61.30;;;21.20;;
16832;SDS011;8533;48.426;10.868;2024-01-11T05:44:44;63.97;;;21.17;;
16832;SDS011;8533;48.426;10.868;2024-01-11T05:47:10;59.93;;;22.73;;
16832;SDS011;8533;48.426;10.868;2024-01-11T05:49:35;65.80;;;20.33;;
16832;SDS011;8533;48.426;10.868;2024-01-11T05:52:01;64.80;;;21.37;;
16832;SDS011;8533;48.426;10.868;2024-01-11T05:54:26;55.30;;;21.10;;
16832;SDS011;8533;48.426;10.868;2024-01-11T05:56:53;51.23;;;20.27;;
16832;SDS011;8533;48.426;10.868;2024-01-11T05:59:21;61.93;;;21.70;;
16832;SDS011;8533;48.426;10.868;2024-01-11T06:01:47;64.60;;;22.47;;
16832;SDS011;8533;48.426;10.868;2024-01-11T06:04:12;60.23;;;22.00;;
16832;SDS011;8533;48.426;10.868;2024-01-11T06:06:37;67.47;;;22.30;;
16832;SDS011;8533;48.426;10.868;2024-01-11T06:09:02;64.17;;;21.87;;
16832;SDS011;8533;48.426;10.868;2024-01-11T06:11:29;104.17;;;33.97;;
16832;SDS011;8533;48.426;10.868;2024-01-11T06:13:55;66.87;;;24.10;;
16832;SDS011;8533;48.426;10.868;2024-01-11T06:16:20;65.53;;;21.67;;
16832;SDS011;8533;48.426;10.868;2024-01-11T06:18:45;62.33;;;21.90;;
16832;SDS011;8533;48.426;10.868;2024-01-11T06:21:11;57.97;;;20.10;;
16832;SDS011;8533;48.426;10.868;2024-01-11T06:23:36;66.00;;;22.37;;
16832;SDS011;8533;48.426;10.868;2024-01-11T06:26:01;53.53;;;19.03;;
16832;SDS011;8533;48.426;10.868;2024-01-11T06:28:27;57.10;;;21.13;;
16832;SDS011;8533;48.426;10.868;2024-01-11T06:30:52;65.03;;;20.83;;
16832;SDS011;8533;48.426;10.868;2024-01-11T06:33:18;62.73;;;21.70;;
16832;SDS011;8533;48.426;10.868;2024-01-11T06:35:45;71.53;;;22.43;;
16832;SDS011;8533;48.426;10.868;2024-01-11T06:38:10;58.83;;;20.53;;
16832;SDS011;8533;48.426;10.868;2024-01-11T06:40:36;57.60;;;21.67;;
16832;SDS011;8533;48.426;10.868;2024-01-11T06:43:01;58.83;;;21.40;;
16832;SDS011;8533;48.426;10.868;2024-01-11T06:45:26;62.73;;;22.20;;
16832;SDS011;8533;48.426;10.868;2024-01-11T06:47:51;59.93;;;20.60;;
16832;SDS011;8533;48.426;10.868;2024-01-11T06:50:17;59.47;;;22.77;;
16832;SDS011;8533;48.426;10.868;2024-01-11T06:52:42;60.83;;;22.83;;
16832;SDS011;8533;48.426;10.868;2024-01-11T06:55:08;55.77;;;22.17;;
16832;SDS011;8533;48.426;10.868;2024-01-11T06:57:33;56.77;;;20.13;;
16832;SDS011;8533;48.426;10.868;2024-01-11T06:59:59;56.20;;;21.40;;
16832;SDS011;8533;48.426;10.868;2024-01-11T07:02:24;61.00;;;20.50;;
16832;SDS011;8533;48.426;10.868;2024-01-11T07:04:50;60.27;;;22.07;;
16832;SDS011;8533;48.426;10.868;2024-01-11T07:07:15;64.10;;;21.57;;
16832;SDS011;8533;48.426;10.868;2024-01-11T07:09:40;68.07;;;24.47;;
16832;SDS011;8533;48.426;10.868;2024-01-11T07:12:05;64.23;;;23.40;;
16832;SDS011;8533;48.426;10.868;2024-01-11T07:14:31;73.10;;;25.83;;
16832;SDS011;8533;48.426;10.868;2024-01-11T07:16:56;60.23;;;23.63;;
16832;SDS011;8533;48.426;10.868;2024-01-11T07:19:22;64.17;;;21.47;;
16832;SDS011;8533;48.426;10.868;2024-01-11T07:21:47;58.37;;;22.53;;
16832;SDS011;8533;48.426;10.868;2024-01-11T07:24:12;54.63;;;19.27;;
16832;SDS011;8533;48.426;10.868;2024-01-11T07:26:38;62.00;;;21.03;;
16832;SDS011;8533;48.426;10.868;2024-01-11T07:29:03;57.30;;;21.50;;
16832;SDS011;8533;48.426;10.868;2024-01-11T07:31:29;66.07;;;20.97;;
16832;SDS011;8533;48.426;10.868;2024-01-11T07:33:54;56.53;;;21.43;;
16832;SDS011;8533;48.426;10.868;2024-01-11T07:36:19;54.50;;;19.87;;
16832;SDS011;8533;48.426;10.868;2024-01-11T07:38:45;56.10;;;20.93;;
16832;SDS011;8533;48.426;10.868;2024-01-11T07:41:10;57.17;;;22.07;;
16832;SDS011;8533;48.426;10.868;2024-01-11T07:43:36;62.10;;;23.10;;
16832;SDS011;8533;48.426;10.868;2024-01-11T07:46:02;55.20;;;20.20;;
16832;SDS011;8533;48.426;10.868;2024-01-11T07:48:28;64.23;;;22.57;;
16832;SDS011;8533;48.426;10.868;2024-01-11T07:50:54;53.47;;;21.13;;
16832;SDS011;8533;48.426;10.868;2024-01-11T07:53:19;59.37;;;19.43;;
16832;SDS011;8533;48.426;10.868;2024-01-11T07:55:45;80.63;;;28.07;;
16832;SDS011;8533;48.426;10.868;2024-01-11T07:58:12;52.97;;;20.47;;
16832;SDS011;8533;48.426;10.868;2024-01-11T08:00:38;49.53;;;21.10;;
16832;SDS011;8533;48.426;10.868;2024-01-11T08:03:04;60.30;;;22.93;;
16832;SDS011;8533;48.426;10.868;2024-01-11T08:05:29;64.57;;;21.03;;
16832;SDS011;8533;48.426;10.868;2024-01-11T08:07:55;60.73;;;21.47;;
16832;SDS011;8533;48.426;10.868;2024-01-11T08:10:20;63.83;;;21.13;;
16832;SDS011;8533;48.426;10.868;2024-01-11T08:12:45;68.33;;;21.63;;
16832;SDS011;8533;48.426;10.868;2024-01-11T08:15:10;53.93;;;19.43;;
16832;SDS011;8533;48.426;10.868;2024-01-11T08:17:37;62.40;;;23.43;;
16832;SDS011;8533;48.426;10.868;2024-01-11T08:20:10;77.50;;;24.37;;
16832;SDS011;8533;48.426;10.868;2024-01-11T08:22:37;64.67;;;20.93;;
16832;SDS011;8533;48.426;10.868;2024-01-11T08:25:04;56.33;;;19.90;;
16832;SDS011;8533;48.426;10.868;2024-01-11T08:27:31;61.23;;;22.57;;
16832;SDS011;8533;48.426;10.868;2024-01-11T08:29:56;53.50;;;20.40;;
16832;SDS011;8533;48.426;10.868;2024-01-11T08:32:22;63.33;;;23.03;;
16832;SDS011;8533;48.426;10.868;2024-01-11T08:34:47;64.23;;;22.00;;
16832;SDS011;8533;48.426;10.868;2024-01-11T08:37:13;66.50;;;24.23;;
16832;SDS011;8533;48.426;10.868;2024-01-11T08:39:39;59.63;;;20.27;;
16832;SDS011;8533;48.426;10.868;2024-01-11T08:42:04;67.73;;;23.27;;
16832;SDS011;8533;48.426;10.868;2024-01-11T08:44:30;60.67;;;21.80;;
16832;SDS011;8533;48.426;10.868;2024-01-11T08:46:56;62.53;;;24.07;;
16832;SDS011;8533;48.426;10.868;2024-01-11T08:49:22;61.50;;;20.43;;
16832;SDS011;8533;48.426;10.868;2024-01-11T08:51:47;61.47;;;19.87;;
16832;SDS011;8533;48.426;10.868;2024-01-11T08:54:13;60.97;;;22.23;;
16832;SDS011;8533;48.426;10.868;2024-01-11T08:56:41;58.37;;;20.60;;
16832;SDS011;8533;48.426;10.868;2024-01-11T08:59:07;57.30;;;21.77;;
16832;SDS011;8533;48.426;10.868;2024-01-11T09:01:33;53.23;;;21.90;;
16832;SDS011;8533;48.426;10.868;2024-01-11T09:04:00;57.33;;;21.87;;
16832;SDS011;8533;48.426;10.868;2024-01-11T09:06:26;60.87;;;21.40;;
16832;SDS011;8533;48.426;10.868;2024-01-11T09:08:51;49.07;;;17.83;;
16832;SDS011;8533;48.426;10.868;2024-01-11T09:11:17;60.47;;;20.30;;
16832;SDS011;8533;48.426;10.868;2024-01-11T09:13:42;61.17;;;21.57;;
16832;SDS011;8533;48.426;10.868;2024-01-11T09:16:08;74.97;;;23.00;;
16832;SDS011;8533;48.426;10.868;2024-01-11T09:18:34;55.43;;;20.87;;
16832;SDS011;8533;48.426;10.868;2024-01-11T09:21:00;56.63;;;21.60;;
16832;SDS011;8533;48.426;10.868;2024-01-11T09:23:25;64.83;;;22.23;;
16832;SDS011;8533;48.426;10.868;2024-01-11T09:25:50;55.47;;;20.17;;
16832;SDS011;8533;48.426;10.868;2024-01-11T09:28:16;66.00;;;22.43;;
16832;SDS011;8533;48.426;10.868;2024-01-11T09:30:41;63.57;;;20.77;;
16832;SDS011;8533;48.426;10.868;2024-01-11T09:33:06;55.17;;;20.70;;
16832;SDS011;8533;48.426;10.868;2024-01-11T09:35:32;64.27;;;22.17;;
16832;SDS011;8533;48.426;10.868;2024-01-11T09:37:57;53.20;;;20.83;;
16832;SDS011;8533;48.426;10.868;2024-01-11T09:40:23;55.30;;;21.03;;
16832;SDS011;8533;48.426;10.868;2024-01-11T09:42:48;51.53;;;21.90;;
16832;SDS011;8533;48.426;10.868;2024-01-11T09:45:15;62.17;;;22.80;;
16832;SDS011;8533;48.426;10.868;2024-01-11T09:47:42;55.33;;;20.10;;
16832;SDS011;8533;48.426;10.868;2024-01-11T09:50:10;59.37;;;20.57;;
16832;SDS011;8533;48.426;10.868;2024-01-11T09:52:42;61.27;;;21.97;;
16832;SDS011;8533;48.426;10.868;2024-01-11T09:55:11;50.10;;;20.73;;
16832;SDS011;8533;48.426;10.868;2024-01-11T09:57:38;55.63;;;20.90;;
16832;SDS011;8533;48.426;10.868;2024-01-11T10:00:09;58.30;;;22.23;;
16832;SDS011;8533;48.426;10.868;2024-01-11T10:02:37;58.60;;;24.40;;
16832;SDS011;8533;48.426;10.868;2024-01-11T10:05:02;63.17;;;21.27;;
16832;SDS011;8533;48.426;10.868;2024-01-11T10:07:28;60.97;;;22.30;;
16832;SDS011;8533;48.426;10.868;2024-01-11T10:09:55;52.40;;;21.97;;
16832;SDS011;8533;48.426;10.868;2024-01-11T10:12:20;60.33;;;22.97;;
16832;SDS011;8533;48.426;10.868;2024-01-11T10:14:49;56.00;;;20.93;;
16832;SDS011;8533;48.426;10.868;2024-01-11T10:17:15;53.07;;;19.63;;
16832;SDS011;8533;48.426;10.868;2024-01-11T10:19:40;51.47;;;21.80;;
16832;SDS011;8533;48.426;10.868;2024-01-11T10:22:05;56.53;;;22.33;;
16832;SDS011;8533;48.426;10.868;2024-01-11T10:24:32;49.43;;;20.10;;
16832;SDS011;8533;48.426;10.868;2024-01-11T10:26:57;49.17;;;19.57;;
16832;SDS011;8533;48.426;10.868;2024-01-11T10:29:30;60.10;;;22.47;;
16832;SDS011;8533;48.426;10.868;2024-01-11T10:31:55;57.77;;;21.27;;
16832;SDS011;8533;48.426;10.868;2024-01-11T10:34:22;52.43;;;20.43;;
16832;SDS011;8533;48.426;10.868;2024-01-11T10:36:48;53.57;;;20.43;;
16832;SDS011;8533;48.426;10.868;2024-01-11T10:39:14;58.20;;;22.53;;
16832;SDS011;8533;48.426;10.868;2024-01-11T10:41:42;52.13;;;21.53;;
16832;SDS011;8533;48.426;10.868;2024-01-11T10:44:21;51.83;;;20.83;;
16832;SDS011;8533;48.426;10.868;2024-01-11T10:46:47;56.23;;;21.53;;
16832;SDS011;8533;48.426;10.868;2024-01-11T10:49:17;51.73;;;22.73;;
16832;SDS011;8533;48.426;10.868;2024-01-11T10:52:02;48.17;;;20.50;;
16832;SDS011;8533;48.426;10.868;2024-01-11T10:54:31;58.17;;;22.33;;
16832;SDS011;8533;48.426;10.868;2024-01-11T10:56:59;49.20;;;21.80;;
16832;SDS011;8533;48.426;10.868;2024-01-11T10:59:26;54.90;;;22.93;;
16832;SDS011;8533;48.426;10.868;2024-01-11T11:01:53;50.57;;;20.50;;
16832;SDS011;8533;48.426;10.868;2024-01-11T11:04:20;53.97;;;22.33;;
16832;SDS011;8533;48.426;10.868;2024-01-11T11:06:47;50.43;;;21.87;;
16832;SDS011;8533;48.426;10.868;2024-01-11T11:09:19;55.70;;;22.67;;
16832;SDS011;8533;48.426;10.868;2024-01-11T11:11:46;63.73;;;23.77;;
16832;SDS011;8533;48.426;10.868;2024-01-11T11:14:14;49.13;;;21.47;;
16832;SDS011;8533;48.426;10.868;2024-01-11T11:16:40;55.40;;;22.77;;
16832;SDS011;8533;48.426;10.868;2024-01-11T11:19:05;55.13;;;23.13;;
16832;SDS011;8533;48.426;10.868;2024-01-11T11:21:31;54.97;;;22.40;;
16832;SDS011;8533;48.426;10.868;2024-01-11T11:23:56;53.87;;;21.93;;
16832;SDS011;8533;48.426;10.868;2024-01-11T11:26:22;56.20;;;24.13;;
16832;SDS011;8533;48.426;10.868;2024-01-11T11:28:50;58.13;;;22.70;;
16832;SDS011;8533;48.426;10.868;2024-01-11T11:31:34;59.83;;;23.27;;
16832;SDS011;8533;48.426;10.868;2024-01-11T11:34:12;58.80;;;26.57;;
16832;SDS011;8533;48.426;10.868;2024-01-11T11:36:39;57.37;;;23.83;;
16832;SDS011;8533;48.426;10.868;2024-01-11T11:39:09;55.13;;;22.10;;
16832;SDS011;8533;48.426;10.868;2024-01-11T11:41:36;58.03;;;22.57;;
16832;SDS011;8533;48.426;10.868;2024-01-11T11:44:03;65.10;;;23.70;;
16832;SDS011;8533;48.426;10.868;2024-01-11T11:46:29;59.93;;;23.53;;
16832;SDS011;8533;48.426;10.868;2024-01-11T11:48:56;54.33;;;22.70;;
16832;SDS011;8533;48.426;10.868;2024-01-11T11:51:22;58.50;;;23.30;;
16832;SDS011;8533;48.426;10.868;2024-01-11T11:53:48;65.53;;;24.93;;
16832;SDS011;8533;48.426;10.868;2024-01-11T11:56:19;60.73;;;24.27;;
16832;SDS011;8533;48.426;10.868;2024-01-11T11:58:45;56.00;;;24.63;;
16832;SDS011;8533;48.426;10.868;2024-01-11T12:01:12;70.73;;;25.53;;
16832;SDS011;8533;48.426;10.868;2024-01-11T12:03:42;58.30;;;22.63;;
16832;SDS011;8533;48.426;10.868;2024-01-11T12:06:13;58.93;;;23.87;;
16832;SDS011;8533;48.426;10.868;2024-01-11T12:08:41;64.40;;;23.93;;
16832;SDS011;8533;48.426;10.868;2024-01-11T12:11:07;63.53;;;23.70;;
16832;SDS011;8533;48.426;10.868;2024-01-11T12:13:32;63.97;;;24.00;;
16832;SDS011;8533;48.426;10.868;2024-01-11T12:15:58;70.37;;;24.13;;
16832;SDS011;8533;48.426;10.868;2024-01-11T12:18:23;59.60;;;24.27;;
16832;SDS011;8533;48.426;10.868;2024-01-11T12:20:49;55.70;;;23.13;;
16832;SDS011;8533;48.426;10.868;2024-01-11T12:23:14;73.10;;;25.30;;
16832;SDS011;8533;48.426;10.868;2024-01-11T12:25:42;62.67;;;25.13;;
16832;SDS011;8533;48.426;10.868;2024-01-11T12:28:08;60.53;;;24.83;;
16832;SDS011;8533;48.426;10.868;2024-01-11T12:30:34;65.87;;;25.23;;
16832;SDS011;8533;48.426;10.868;2024-01-11T12:32:59;57.57;;;23.90;;
16832;SDS011;8533;48.426;10.868;2024-01-11T12:35:29;62.93;;;24.70;;
16832;SDS011;8533;48.426;10.868;2024-01-11T12:37:58;67.93;;;25.43;;
16832;SDS011;8533;48.426;10.868;2024-01-11T12:40:24;61.10;;;23.37;;
16832;SDS011;8533;48.426;10.868;2024-01-11T12:42:49;60.67;;;24.27;;
16832;SDS011;8533;48.426;10.868;2024-01-11T12:45:18;59.23;;;24.47;;
16832;SDS011;8533;48.426;10.868;2024-01-11T12:47:43;59.73;;;23.43;;
16832;SDS011;8533;48.426;10.868;2024-01-11T12:50:09;59.10;;;23.80;;
16832;SDS011;8533;48.426;10.868;2024-01-11T12:52:37;57.40;;;23.07;;
16832;SDS011;8533;48.426;10.868;2024-01-11T12:55:02;66.57;;;24.30;;
16832;SDS011;8533;48.426;10.868;2024-01-11T12:57:29;65.30;;;26.00;;
16832;SDS011;8533;48.426;10.868;2024-01-11T12:59:54;70.90;;;25.97;;
16832;SDS011;8533;48.426;10.868;2024-01-11T13:02:35;58.20;;;23.50;;
16832;SDS011;8533;48.426;10.868;2024-01-11T13:05:00;66.53;;;23.30;;
16832;SDS011;8533;48.426;10.868;2024-01-11T13:07:27;57.23;;;23.40;;
16832;SDS011;8533;48.426;10.868;2024-01-11T13:09:52;63.33;;;24.43;;
16832;SDS011;8533;48.426;10.868;2024-01-11T13:12:18;60.93;;;23.43;;
16832;SDS011;8533;48.426;10.868;2024-01-11T13:14:45;67.67;;;25.77;;
16832;SDS011;8533;48.426;10.868;2024-01-11T13:17:11;56.17;;;22.50;;
16832;SDS011;8533;48.426;10.868;2024-01-11T13:19:36;63.67;;;23.93;;
16832;SDS011;8533;48.426;10.868;2024-01-11T13:22:02;65.43;;;24.73;;
16832;SDS011;8533;48.426;10.868;2024-01-11T13:24:27;60.77;;;25.40;;
16832;SDS011;8533;48.426;10.868;2024-01-11T13:26:52;60.10;;;24.23;;
16832;SDS011;8533;48.426;10.868;2024-01-11T13:29:18;61.53;;;24.83;;
16832;SDS011;8533;48.426;10.868;2024-01-11T13:31:43;62.40;;;24.27;;
16832;SDS011;8533;48.426;10.868;2024-01-11T13:34:08;64.73;;;26.47;;
16832;SDS011;8533;48.426;10.868;2024-01-11T13:36:34;57.40;;;24.93;;
16832;SDS011;8533;48.426;10.868;2024-01-11T13:38:59;65.87;;;25.33;;
16832;SDS011;8533;48.426;10.868;2024-01-11T13:41:25;61.10;;;24.77;;
16832;SDS011;8533;48.426;10.868;2024-01-11T13:43:50;61.03;;;26.70;;
16832;SDS011;8533;48.426;10.868;2024-01-11T13:46:16;64.57;;;25.00;;
16832;SDS011;8533;48.426;10.868;2024-01-11T13:48:44;55.83;;;24.50;;
16832;SDS011;8533;48.426;10.868;2024-01-11T13:51:10;58.80;;;23.47;;
16832;SDS011;8533;48.426;10.868;2024-01-11T13:53:38;55.63;;;24.03;;
16832;SDS011;8533;48.426;10.868;2024-01-11T13:56:03;67.37;;;24.00;;
16832;SDS011;8533;48.426;10.868;2024-01-11T13:58:29;63.30;;;25.27;;
16832;SDS011;8533;48.426;10.868;2024-01-11T14:00:54;61.20;;;22.67;;
16832;SDS011;8533;48.426;10.868;2024-01-11T14:03:20;55.97;;;24.80;;
16832;SDS011;8533;48.426;10.868;2024-01-11T14:05:45;59.93;;;25.63;;
16832;SDS011;8533;48.426;10.868;2024-01-11T14:08:10;60.87;;;23.37;;
16832;SDS011;8533;48.426;10.868;2024-01-11T14:10:36;62.63;;;25.63;;
16832;SDS011;8533;48.426;10.868;2024-01-11T14:13:02;57.97;;;23.10;;
16832;SDS011;8533;48.426;10.868;2024-01-11T14:15:27;59.53;;;23.67;;
16832;SDS011;8533;48.426;10.868;2024-01-11T14:17:53;61.20;;;23.90;;
16832;SDS011;8533;48.426;10.868;2024-01-11T14:20:19;62.57;;;24.03;;